sensor_id;sensor_type;location;lat;lon;timestamp;P1;durP1;ratioP1;P2;durP2;ratioP2
23146;SDS011;11742;53.532;-1.478;2022-11-14T00:01:08;10.38;;;6.18;;
23146;SDS011;11742;53.532;-1.478;2022-11-14T00:03:35;8.55;;;5.45;;
23146;SDS011;11742;53.532;-1.478;2022-11-14T00:06:03;9.35;;;6.10;;
23146;SDS011;11742;53.532;-1.478;2022-11-14T00:08:31;7.32;;;5.38;;
23146;SDS011;11742;53.532;-1.478;2022-11-14T00:10:56;8.65;;;5.97;;
23146;SDS011;11742;53.532;-1.478;2022-11-14T00:13:22;11.07;;;6.05;;
23146;SDS011;11742;53.532;-1.478;2022-11-14T00:15:48;9.20;;;5.70;;
23146;SDS011;11742;53.532;-1.478;2022-11-14T00:18:15;8.80;;;5.78;;
23146;SDS011;11742;53.532;-1.478;2022-11-14T00:20:41;8.75;;;6.03;;
23146;SDS011;11742;53.532;-1.478;2022-11-14T00:23:07;9.45;;;5.72;;
23146;SDS011;11742;53.532;-1.478;2022-11-14T00:25:33;13.85;;;6.53;;
23146;SDS011;11742;53.532;-1.478;2022-11-14T00:27:59;8.20;;;5.22;;
23146;SDS011;11742;53.532;-1.478;2022-11-14T00:30:24;9.98;;;5.63;;
23146;SDS011;11742;53.532;-1.478;2022-11-14T00:32:52;10.15;;;6.00;;
23146;SDS011;11742;53.532;-1.478;2022-11-14T00:35:17;10.90;;;5.43;;
23146;SDS011;11742;53.532;-1.478;2022-11-14T00:37:43;10.90;;;5.97;;
23146;SDS011;11742;53.532;-1.478;2022-11-14T00:40:09;9.23;;;5.90;;
23146;SDS011;11742;53.532;-1.478;2022-11-14T00:42:35;10.05;;;5.97;;
23146;SDS011;11742;53.532;-1.478;2022-11-14T00:45:00;11.07;;;6.43;;
23146;SDS011;11742;53.532;-1.478;2022-11-14T00:47:26;10.25;;;6.15;;
23146;SDS011;11742;53.532;-1.478;2022-11-14T00:49:52;10.75;;;6.28;;
23146;SDS011;11742;53.532;-1.478;2022-11-14T00:52:17;8.88;;;5.63;;
23146;SDS011;11742;53.532;-1.478;2022-11-14T00:54:43;8.73;;;5.82;;
23146;SDS011;11742;53.532;-1.478;2022-11-14T00:57:08;11.70;;;6.78;;
23146;SDS011;11742;53.532;-1.478;2022-11-14T00:59:34;9.27;;;6.53;;
23146;SDS011;11742;53.532;-1.478;2022-11-14T01:02:00;11.13;;;6.88;;
23146;SDS011;11742;53.532;-1.478;2022-11-14T01:04:25;9.15;;;5.97;;
23146;SDS011;11742;53.532;-1.478;2022-11-14T01:06:51;9.27;;;6.20;;
23146;SDS011;11742;53.532;-1.478;2022-11-14T01:09:17;10.15;;;6.20;;
23146;SDS011;11742;53.532;-1.478;2022-11-14T01:11:43;9.25;;;5.47;;
23146;SDS011;11742;53.532;-1.478;2022-11-14T01:14:08;8.98;;;6.07;;
23146;SDS011;11742;53.532;-1.478;2022-11-14T01:16:34;8.98;;;5.78;;
23146;SDS011;11742;53.532;-1.478;2022-11-14T01:19:00;11.30;;;6.07;;
23146;SDS011;11742;53.532;-1.478;2022-11-14T01:21:26;7.68;;;5.35;;
23146;SDS011;11742;53.532;-1.478;2022-11-14T01:23:52;9.77;;;5.78;;
23146;SDS011;11742;53.532;-1.478;2022-11-14T01:26:18;8.85;;;5.80;;
23146;SDS011;11742;53.532;-1.478;2022-11-14T01:28:43;9.73;;;5.80;;
23146;SDS011;11742;53.532;-1.478;2022-11-14T01:31:14;8.73;;;5.55;;
23146;SDS011;11742;53.532;-1.478;2022-11-14T01:33:46;10.13;;;5.50;;
23146;SDS011;11742;53.532;-1.478;2022-11-14T01:36:16;10.65;;;6.43;;
23146;SDS011;11742;53.532;-1.478;2022-11-14T01:38:42;8.65;;;5.28;;
23146;SDS011;11742;53.532;-1.478;2022-11-14T01:41:08;10.32;;;5.97;;
23146;SDS011;11742;53.532;-1.478;2022-11-14T01:43:39;8.60;;;5.78;;
23146;SDS011;11742;53.532;-1.478;2022-11-14T01:46:06;10.90;;;6.15;;
23146;SDS011;11742;53.532;-1.478;2022-11-14T01:48:51;8.40;;;5.28;;
23146;SDS011;11742;53.532;-1.478;2022-11-14T01:51:26;10.40;;;5.28;;
23146;SDS011;11742;53.532;-1.478;2022-11-14T01:53:55;10.13;;;6.32;;
23146;SDS011;11742;53.532;-1.478;2022-11-14T01:56:58;8.98;;;5.80;;
23146;SDS011;11742;53.532;-1.478;2022-11-14T01:59:20;10.57;;;6.43;;
23146;SDS011;11742;53.532;-1.478;2022-11-14T02:01:50;10.20;;;6.03;;
23146;SDS011;11742;53.532;-1.478;2022-11-14T02:04:21;11.90;;;6.38;;
23146;SDS011;11742;53.532;-1.478;2022-11-14T02:06:54;9.35;;;5.85;;
23146;SDS011;11742;53.532;-1.478;2022-11-14T02:09:22;9.63;;;5.68;;
23146;SDS011;11742;53.532;-1.478;2022-11-14T02:11:49;10.82;;;6.05;;
23146;SDS011;11742;53.532;-1.478;2022-11-14T02:14:17;9.55;;;5.97;;
23146;SDS011;11742;53.532;-1.478;2022-11-14T02:16:43;12.35;;;6.50;;
23146;SDS011;11742;53.532;-1.478;2022-11-14T02:19:09;8.65;;;5.68;;
23146;SDS011;11742;53.532;-1.478;2022-11-14T02:21:35;9.75;;;6.30;;
23146;SDS011;11742;53.532;-1.478;2022-11-14T02:24:00;8.13;;;5.25;;
23146;SDS011;11742;53.532;-1.478;2022-11-14T02:26:26;9.40;;;5.57;;
23146;SDS011;11742;53.532;-1.478;2022-11-14T02:28:52;8.52;;;5.57;;
23146;SDS011;11742;53.532;-1.478;2022-11-14T02:31:18;11.98;;;6.30;;
23146;SDS011;11742;53.532;-1.478;2022-11-14T02:33:44;9.63;;;6.07;;
23146;SDS011;11742;53.532;-1.478;2022-11-14T02:36:09;9.50;;;5.70;;
23146;SDS011;11742;53.532;-1.478;2022-11-14T02:38:35;9.10;;;5.75;;
23146;SDS011;11742;53.532;-1.478;2022-11-14T02:41:01;8.73;;;6.10;;
23146;SDS011;11742;53.532;-1.478;2022-11-14T02:43:27;9.18;;;5.68;;
23146;SDS011;11742;53.532;-1.478;2022-11-14T02:45:53;10.77;;;6.18;;
23146;SDS011;11742;53.532;-1.478;2022-11-14T02:48:18;11.13;;;6.70;;
23146;SDS011;11742;53.532;-1.478;2022-11-14T02:50:47;10.98;;;6.38;;
23146;SDS011;11742;53.532;-1.478;2022-11-14T02:53:13;10.88;;;6.10;;
23146;SDS011;11742;53.532;-1.478;2022-11-14T02:55:39;8.90;;;5.70;;
23146;SDS011;11742;53.532;-1.478;2022-11-14T02:58:05;11.90;;;6.80;;
23146;SDS011;11742;53.532;-1.478;2022-11-14T03:00:31;9.77;;;6.13;;
23146;SDS011;11742;53.532;-1.478;2022-11-14T03:02:57;9.98;;;5.78;;
23146;SDS011;11742;53.532;-1.478;2022-11-14T03:05:23;10.35;;;5.63;;
23146;SDS011;11742;53.532;-1.478;2022-11-14T03:07:51;10.10;;;5.97;;
23146;SDS011;11742;53.532;-1.478;2022-11-14T03:10:18;10.75;;;6.45;;
23146;SDS011;11742;53.532;-1.478;2022-11-14T03:12:45;10.07;;;6.05;;
23146;SDS011;11742;53.532;-1.478;2022-11-14T03:15:11;11.60;;;6.25;;
23146;SDS011;11742;53.532;-1.478;2022-11-14T03:17:36;10.25;;;5.60;;
23146;SDS011;11742;53.532;-1.478;2022-11-14T03:20:02;10.95;;;6.32;;
23146;SDS011;11742;53.532;-1.478;2022-11-14T03:22:28;9.52;;;5.80;;
23146;SDS011;11742;53.532;-1.478;2022-11-14T03:24:54;9.15;;;5.50;;
23146;SDS011;11742;53.532;-1.478;2022-11-14T03:27:20;10.75;;;6.55;;
23146;SDS011;11742;53.532;-1.478;2022-11-14T03:29:49;10.18;;;5.80;;
23146;SDS011;11742;53.532;-1.478;2022-11-14T03:32:15;9.98;;;6.10;;
23146;SDS011;11742;53.532;-1.478;2022-11-14T03:34:41;10.15;;;5.63;;
23146;SDS011;11742;53.532;-1.478;2022-11-14T03:37:07;10.65;;;5.63;;
23146;SDS011;11742;53.532;-1.478;2022-11-14T03:39:33;9.77;;;5.68;;
23146;SDS011;11742;53.532;-1.478;2022-11-14T03:41:59;11.25;;;6.00;;
23146;SDS011;11742;53.532;-1.478;2022-11-14T03:44:24;11.57;;;6.40;;
23146;SDS011;11742;53.532;-1.478;2022-11-14T03:46:50;9.85;;;5.88;;
23146;SDS011;11742;53.532;-1.478;2022-11-14T03:49:16;11.00;;;6.18;;
23146;SDS011;11742;53.532;-1.478;2022-11-14T03:51:42;10.80;;;6.60;;
23146;SDS011;11742;53.532;-1.478;2022-11-14T03:54:08;12.63;;;6.60;;
23146;SDS011;11742;53.532;-1.478;2022-11-14T03:56:34;12.05;;;6.30;;
23146;SDS011;11742;53.532;-1.478;2022-11-14T03:58:59;10.82;;;6.05;;
23146;SDS011;11742;53.532;-1.478;2022-11-14T04:01:25;12.18;;;6.75;;
23146;SDS011;11742;53.532;-1.478;2022-11-14T04:03:52;11.48;;;6.10;;
23146;SDS011;11742;53.532;-1.478;2022-11-14T04:06:17;11.05;;;6.00;;
23146;SDS011;11742;53.532;-1.478;2022-11-14T04:08:43;9.82;;;5.88;;
23146;SDS011;11742;53.532;-1.478;2022-11-14T04:11:09;11.75;;;7.05;;
23146;SDS011;11742;53.532;-1.478;2022-11-14T04:13:34;9.88;;;5.88;;
23146;SDS011;11742;53.532;-1.478;2022-11-14T04:16:00;9.93;;;6.35;;
23146;SDS011;11742;53.532;-1.478;2022-11-14T04:18:26;12.27;;;6.60;;
23146;SDS011;11742;53.532;-1.478;2022-11-14T04:20:52;11.38;;;6.38;;
23146;SDS011;11742;53.532;-1.478;2022-11-14T04:23:18;10.32;;;6.57;;
23146;SDS011;11742;53.532;-1.478;2022-11-14T04:25:44;8.40;;;5.40;;
23146;SDS011;11742;53.532;-1.478;2022-11-14T04:28:11;9.88;;;5.90;;
23146;SDS011;11742;53.532;-1.478;2022-11-14T04:30:37;10.38;;;6.28;;
23146;SDS011;11742;53.532;-1.478;2022-11-14T04:33:03;11.18;;;6.53;;
23146;SDS011;11742;53.532;-1.478;2022-11-14T04:35:29;9.60;;;6.03;;
23146;SDS011;11742;53.532;-1.478;2022-11-14T04:37:55;9.18;;;5.25;;
23146;SDS011;11742;53.532;-1.478;2022-11-14T04:40:21;10.07;;;6.15;;
23146;SDS011;11742;53.532;-1.478;2022-11-14T04:42:47;8.98;;;5.38;;
23146;SDS011;11742;53.532;-1.478;2022-11-14T04:45:13;9.50;;;5.95;;
23146;SDS011;11742;53.532;-1.478;2022-11-14T04:47:42;9.70;;;5.32;;
23146;SDS011;11742;53.532;-1.478;2022-11-14T04:50:08;9.23;;;5.40;;
23146;SDS011;11742;53.532;-1.478;2022-11-14T04:52:34;9.10;;;5.65;;
23146;SDS011;11742;53.532;-1.478;2022-11-14T04:55:00;8.55;;;5.35;;
23146;SDS011;11742;53.532;-1.478;2022-11-14T04:57:25;11.82;;;6.22;;
23146;SDS011;11742;53.532;-1.478;2022-11-14T04:59:51;8.82;;;5.38;;
23146;SDS011;11742;53.532;-1.478;2022-11-14T05:02:17;9.75;;;5.70;;
23146;SDS011;11742;53.532;-1.478;2022-11-14T05:04:42;11.00;;;6.05;;
23146;SDS011;11742;53.532;-1.478;2022-11-14T05:07:09;11.77;;;6.25;;
23146;SDS011;11742;53.532;-1.478;2022-11-14T05:09:35;10.48;;;5.90;;
23146;SDS011;11742;53.532;-1.478;2022-11-14T05:12:01;10.75;;;6.03;;
23146;SDS011;11742;53.532;-1.478;2022-11-14T05:14:27;11.70;;;6.35;;
23146;SDS011;11742;53.532;-1.478;2022-11-14T05:16:53;10.77;;;6.68;;
23146;SDS011;11742;53.532;-1.478;2022-11-14T05:19:19;14.30;;;6.47;;
23146;SDS011;11742;53.532;-1.478;2022-11-14T05:21:44;13.00;;;6.95;;
23146;SDS011;11742;53.532;-1.478;2022-11-14T05:24:10;9.88;;;5.55;;
23146;SDS011;11742;53.532;-1.478;2022-11-14T05:26:36;13.45;;;6.78;;
23146;SDS011;11742;53.532;-1.478;2022-11-14T05:29:02;9.85;;;5.78;;
23146;SDS011;11742;53.532;-1.478;2022-11-14T05:31:28;10.23;;;6.03;;
23146;SDS011;11742;53.532;-1.478;2022-11-14T05:33:54;9.25;;;5.53;;
23146;SDS011;11742;53.532;-1.478;2022-11-14T05:36:20;12.73;;;6.53;;
23146;SDS011;11742;53.532;-1.478;2022-11-14T05:38:45;11.15;;;6.20;;
23146;SDS011;11742;53.532;-1.478;2022-11-14T05:41:15;14.45;;;6.70;;
23146;SDS011;11742;53.532;-1.478;2022-11-14T05:43:43;10.25;;;6.40;;
23146;SDS011;11742;53.532;-1.478;2022-11-14T05:46:11;9.45;;;5.70;;
23146;SDS011;11742;53.532;-1.478;2022-11-14T05:48:38;10.93;;;6.03;;
23146;SDS011;11742;53.532;-1.478;2022-11-14T05:51:05;11.48;;;6.25;;
23146;SDS011;11742;53.532;-1.478;2022-11-14T05:53:33;11.80;;;6.18;;
23146;SDS011;11742;53.532;-1.478;2022-11-14T05:55:59;10.43;;;6.00;;
23146;SDS011;11742;53.532;-1.478;2022-11-14T05:58:26;10.30;;;5.85;;
23146;SDS011;11742;53.532;-1.478;2022-11-14T06:00:52;14.10;;;6.10;;
23146;SDS011;11742;53.532;-1.478;2022-11-14T06:03:29;12.50;;;6.95;;
23146;SDS011;11742;53.532;-1.478;2022-11-14T06:05:58;9.43;;;5.88;;
23146;SDS011;11742;53.532;-1.478;2022-11-14T06:08:28;10.57;;;6.15;;
23146;SDS011;11742;53.532;-1.478;2022-11-14T06:10:54;13.35;;;6.35;;
23146;SDS011;11742;53.532;-1.478;2022-11-14T06:13:25;11.65;;;6.07;;
23146;SDS011;11742;53.532;-1.478;2022-11-14T06:15:51;12.95;;;7.05;;
23146;SDS011;11742;53.532;-1.478;2022-11-14T06:18:16;11.00;;;6.45;;
23146;SDS011;11742;53.532;-1.478;2022-11-14T06:20:42;10.73;;;6.22;;
23146;SDS011;11742;53.532;-1.478;2022-11-14T06:23:07;11.23;;;6.22;;
23146;SDS011;11742;53.532;-1.478;2022-11-14T06:25:33;11.35;;;6.75;;
23146;SDS011;11742;53.532;-1.478;2022-11-14T06:27:59;13.02;;;6.25;;
23146;SDS011;11742;53.532;-1.478;2022-11-14T06:30:24;9.48;;;5.95;;
23146;SDS011;11742;53.532;-1.478;2022-11-14T06:32:55;10.48;;;6.07;;
23146;SDS011;11742;53.532;-1.478;2022-11-14T06:35:22;10.30;;;5.65;;
23146;SDS011;11742;53.532;-1.478;2022-11-14T06:37:47;11.40;;;6.30;;
23146;SDS011;11742;53.532;-1.478;2022-11-14T06:40:13;10.43;;;6.05;;
23146;SDS011;11742;53.532;-1.478;2022-11-14T06:42:39;12.15;;;6.22;;
23146;SDS011;11742;53.532;-1.478;2022-11-14T06:45:04;10.40;;;6.32;;
23146;SDS011;11742;53.532;-1.478;2022-11-14T06:47:30;11.90;;;6.38;;
23146;SDS011;11742;53.532;-1.478;2022-11-14T06:49:56;9.88;;;5.95;;
23146;SDS011;11742;53.532;-1.478;2022-11-14T06:52:22;11.20;;;6.15;;
23146;SDS011;11742;53.532;-1.478;2022-11-14T06:54:47;10.93;;;5.97;;
23146;SDS011;11742;53.532;-1.478;2022-11-14T06:57:13;12.63;;;6.45;;
23146;SDS011;11742;53.532;-1.478;2022-11-14T06:59:38;10.15;;;6.13;;
23146;SDS011;11742;53.532;-1.478;2022-11-14T07:02:04;12.82;;;6.32;;
23146;SDS011;11742;53.532;-1.478;2022-11-14T07:04:30;9.48;;;5.72;;
23146;SDS011;11742;53.532;-1.478;2022-11-14T07:06:56;10.38;;;5.55;;
23146;SDS011;11742;53.532;-1.478;2022-11-14T07:09:21;10.45;;;6.07;;
23146;SDS011;11742;53.532;-1.478;2022-11-14T07:11:47;9.93;;;5.88;;
23146;SDS011;11742;53.532;-1.478;2022-11-14T07:14:12;9.40;;;5.70;;
23146;SDS011;11742;53.532;-1.478;2022-11-14T07:16:38;9.27;;;5.50;;
23146;SDS011;11742;53.532;-1.478;2022-11-14T07:19:05;10.50;;;6.18;;
23146;SDS011;11742;53.532;-1.478;2022-11-14T07:21:33;9.25;;;5.50;;
23146;SDS011;11742;53.532;-1.478;2022-11-14T07:23:59;7.65;;;5.18;;
23146;SDS011;11742;53.532;-1.478;2022-11-14T07:26:25;11.23;;;5.55;;
23146;SDS011;11742;53.532;-1.478;2022-11-14T07:28:51;8.55;;;4.90;;
23146;SDS011;11742;53.532;-1.478;2022-11-14T07:31:17;9.32;;;5.45;;
23146;SDS011;11742;53.532;-1.478;2022-11-14T07:33:43;8.80;;;5.25;;
23146;SDS011;11742;53.532;-1.478;2022-11-14T07:36:11;7.97;;;4.88;;
23146;SDS011;11742;53.532;-1.478;2022-11-14T07:38:37;9.70;;;5.53;;
23146;SDS011;11742;53.532;-1.478;2022-11-14T07:41:05;8.82;;;5.03;;
23146;SDS011;11742;53.532;-1.478;2022-11-14T07:43:31;9.00;;;5.43;;
23146;SDS011;11742;53.532;-1.478;2022-11-14T07:48:27;10.27;;;5.13;;
23146;SDS011;11742;53.532;-1.478;2022-11-14T07:50:57;8.85;;;5.30;;
23146;SDS011;11742;53.532;-1.478;2022-11-14T07:53:24;9.73;;;5.93;;
23146;SDS011;11742;53.532;-1.478;2022-11-14T07:55:50;8.88;;;5.25;;
23146;SDS011;11742;53.532;-1.478;2022-11-14T07:58:15;9.60;;;6.05;;
23146;SDS011;11742;53.532;-1.478;2022-11-14T08:00:41;9.73;;;5.20;;
23146;SDS011;11742;53.532;-1.478;2022-11-14T08:03:07;9.10;;;5.47;;
23146;SDS011;11742;53.532;-1.478;2022-11-14T08:05:33;11.95;;;5.85;;
23146;SDS011;11742;53.532;-1.478;2022-11-14T08:07:59;9.90;;;6.00;;
23146;SDS011;11742;53.532;-1.478;2022-11-14T08:10:25;11.05;;;6.25;;
23146;SDS011;11742;53.532;-1.478;2022-11-14T08:12:57;9.20;;;5.22;;
23146;SDS011;11742;53.532;-1.478;2022-11-14T08:15:25;8.85;;;5.28;;
23146;SDS011;11742;53.532;-1.478;2022-11-14T08:17:51;10.75;;;5.70;;
23146;SDS011;11742;53.532;-1.478;2022-11-14T08:20:16;10.02;;;6.07;;
23146;SDS011;11742;53.532;-1.478;2022-11-14T08:22:43;11.73;;;6.03;;
23146;SDS011;11742;53.532;-1.478;2022-11-14T08:25:08;10.27;;;5.80;;
23146;SDS011;11742;53.532;-1.478;2022-11-14T08:27:34;10.20;;;5.53;;
23146;SDS011;11742;53.532;-1.478;2022-11-14T08:30:00;10.88;;;5.97;;
23146;SDS011;11742;53.532;-1.478;2022-11-14T08:32:25;12.27;;;6.50;;
23146;SDS011;11742;53.532;-1.478;2022-11-14T08:34:51;11.35;;;6.18;;
23146;SDS011;11742;53.532;-1.478;2022-11-14T08:37:16;9.25;;;5.40;;
23146;SDS011;11742;53.532;-1.478;2022-11-14T08:39:42;10.13;;;5.57;;
23146;SDS011;11742;53.532;-1.478;2022-11-14T08:42:08;10.90;;;5.80;;
23146;SDS011;11742;53.532;-1.478;2022-11-14T08:44:33;12.23;;;6.03;;
23146;SDS011;11742;53.532;-1.478;2022-11-14T08:46:59;11.73;;;6.63;;
23146;SDS011;11742;53.532;-1.478;2022-11-14T08:49:26;11.77;;;6.85;;
23146;SDS011;11742;53.532;-1.478;2022-11-14T08:51:52;13.65;;;6.30;;
23146;SDS011;11742;53.532;-1.478;2022-11-14T08:54:18;13.60;;;7.32;;
23146;SDS011;11742;53.532;-1.478;2022-11-14T08:56:44;9.32;;;6.05;;
23146;SDS011;11742;53.532;-1.478;2022-11-14T08:59:09;13.38;;;6.05;;
23146;SDS011;11742;53.532;-1.478;2022-11-14T09:01:35;10.13;;;6.15;;
23146;SDS011;11742;53.532;-1.478;2022-11-14T09:04:01;8.75;;;5.70;;
23146;SDS011;11742;53.532;-1.478;2022-11-14T09:06:26;11.20;;;6.22;;
23146;SDS011;11742;53.532;-1.478;2022-11-14T09:08:52;11.80;;;6.35;;
23146;SDS011;11742;53.532;-1.478;2022-11-14T09:11:18;13.18;;;6.70;;
23146;SDS011;11742;53.532;-1.478;2022-11-14T09:13:44;10.38;;;5.82;;
23146;SDS011;11742;53.532;-1.478;2022-11-14T09:16:10;11.43;;;6.20;;
23146;SDS011;11742;53.532;-1.478;2022-11-14T09:18:36;11.55;;;6.28;;
23146;SDS011;11742;53.532;-1.478;2022-11-14T09:21:05;11.80;;;6.40;;
23146;SDS011;11742;53.532;-1.478;2022-11-14T09:23:32;10.88;;;6.38;;
23146;SDS011;11742;53.532;-1.478;2022-11-14T09:26:05;10.40;;;5.70;;
23146;SDS011;11742;53.532;-1.478;2022-11-14T09:28:31;8.85;;;5.90;;
23146;SDS011;11742;53.532;-1.478;2022-11-14T09:31:01;9.23;;;5.68;;
23146;SDS011;11742;53.532;-1.478;2022-11-14T09:33:28;8.65;;;5.30;;
23146;SDS011;11742;53.532;-1.478;2022-11-14T09:36:00;10.25;;;6.00;;
23146;SDS011;11742;53.532;-1.478;2022-11-14T09:38:28;8.90;;;5.50;;
23146;SDS011;11742;53.532;-1.478;2022-11-14T09:46:18;13.25;;;6.35;;
23146;SDS011;11742;53.532;-1.478;2022-11-14T09:48:48;10.02;;;6.13;;
23146;SDS011;11742;53.532;-1.478;2022-11-14T09:51:19;9.05;;;5.85;;
23146;SDS011;11742;53.532;-1.478;2022-11-14T09:56:46;10.30;;;6.22;;
23146;SDS011;11742;53.532;-1.478;2022-11-14T09:59:12;11.52;;;6.70;;
23146;SDS011;11742;53.532;-1.478;2022-11-14T10:04:38;10.30;;;5.70;;
23146;SDS011;11742;53.532;-1.478;2022-11-14T10:10:04;10.95;;;5.30;;
23146;SDS011;11742;53.532;-1.478;2022-11-14T10:12:59;9.55;;;6.28;;
23146;SDS011;11742;53.532;-1.478;2022-11-14T10:18:40;11.77;;;6.63;;
23146;SDS011;11742;53.532;-1.478;2022-11-14T10:21:21;11.23;;;6.07;;
23146;SDS011;11742;53.532;-1.478;2022-11-14T10:23:56;12.27;;;7.18;;
23146;SDS011;11742;53.532;-1.478;2022-11-14T10:26:25;10.63;;;6.63;;
23146;SDS011;11742;53.532;-1.478;2022-11-14T10:34:31;12.35;;;7.15;;
23146;SDS011;11742;53.532;-1.478;2022-11-14T10:39:53;15.00;;;7.82;;
23146;SDS011;11742;53.532;-1.478;2022-11-14T10:42:27;13.05;;;6.90;;
23146;SDS011;11742;53.532;-1.478;2022-11-14T10:45:00;13.98;;;7.82;;
23146;SDS011;11742;53.532;-1.478;2022-11-14T10:47:35;14.07;;;7.43;;
23146;SDS011;11742;53.532;-1.478;2022-11-14T10:50:27;14.27;;;7.72;;
23146;SDS011;11742;53.532;-1.478;2022-11-14T10:56:09;13.05;;;7.05;;
23146;SDS011;11742;53.532;-1.478;2022-11-14T10:58:37;11.45;;;6.35;;
23146;SDS011;11742;53.532;-1.478;2022-11-14T11:06:52;13.95;;;6.80;;
23146;SDS011;11742;53.532;-1.478;2022-11-14T11:12:04;11.77;;;7.13;;
23146;SDS011;11742;53.532;-1.478;2022-11-14T11:14:31;11.07;;;6.65;;
23146;SDS011;11742;53.532;-1.478;2022-11-14T11:19:36;11.95;;;6.55;;
23146;SDS011;11742;53.532;-1.478;2022-11-14T11:22:22;12.13;;;6.80;;
23146;SDS011;11742;53.532;-1.478;2022-11-14T11:24:49;11.60;;;6.47;;
23146;SDS011;11742;53.532;-1.478;2022-11-14T11:27:20;12.38;;;6.82;;
23146;SDS011;11742;53.532;-1.478;2022-11-14T11:32:42;10.43;;;6.55;;
23146;SDS011;11742;53.532;-1.478;2022-11-14T11:35:10;10.07;;;5.53;;
23146;SDS011;11742;53.532;-1.478;2022-11-14T11:37:40;12.75;;;6.85;;
23146;SDS011;11742;53.532;-1.478;2022-11-14T11:40:20;11.13;;;6.25;;
23146;SDS011;11742;53.532;-1.478;2022-11-14T11:42:50;10.68;;;5.97;;
23146;SDS011;11742;53.532;-1.478;2022-11-14T11:45:20;11.40;;;6.65;;
23146;SDS011;11742;53.532;-1.478;2022-11-14T11:47:56;9.18;;;5.88;;
23146;SDS011;11742;53.532;-1.478;2022-11-14T11:50:38;10.90;;;5.93;;
23146;SDS011;11742;53.532;-1.478;2022-11-14T11:55:52;9.63;;;5.75;;
23146;SDS011;11742;53.532;-1.478;2022-11-14T12:00:52;12.88;;;6.63;;
23146;SDS011;11742;53.532;-1.478;2022-11-14T12:03:22;12.43;;;6.55;;
23146;SDS011;11742;53.532;-1.478;2022-11-14T12:11:39;8.20;;;5.68;;
23146;SDS011;11742;53.532;-1.478;2022-11-14T12:25:16;9.95;;;5.90;;
23146;SDS011;11742;53.532;-1.478;2022-11-14T12:30:18;9.68;;;5.78;;
23146;SDS011;11742;53.532;-1.478;2022-11-14T12:32:50;8.07;;;5.18;;
23146;SDS011;11742;53.532;-1.478;2022-11-14T12:35:38;8.98;;;5.28;;
23146;SDS011;11742;53.532;-1.478;2022-11-14T12:38:12;9.48;;;5.57;;
23146;SDS011;11742;53.532;-1.478;2022-11-14T12:40:40;7.72;;;5.57;;
23146;SDS011;11742;53.532;-1.478;2022-11-14T12:46:04;13.23;;;7.20;;
23146;SDS011;11742;53.532;-1.478;2022-11-14T12:48:46;11.48;;;6.55;;
23146;SDS011;11742;53.532;-1.478;2022-11-14T12:53:50;10.18;;;6.07;;
23146;SDS011;11742;53.532;-1.478;2022-11-14T13:11:52;9.48;;;5.63;;
23146;SDS011;11742;53.532;-1.478;2022-11-14T13:17:37;10.10;;;5.55;;
23146;SDS011;11742;53.532;-1.478;2022-11-14T13:20:32;11.73;;;5.80;;
23146;SDS011;11742;53.532;-1.478;2022-11-14T13:33:40;9.55;;;5.68;;
23146;SDS011;11742;53.532;-1.478;2022-11-14T13:36:20;12.35;;;6.65;;
23146;SDS011;11742;53.532;-1.478;2022-11-14T13:51:58;12.07;;;6.93;;
23146;SDS011;11742;53.532;-1.478;2022-11-14T13:54:24;12.00;;;6.40;;
23146;SDS011;11742;53.532;-1.478;2022-11-14T14:07:42;9.32;;;5.78;;
23146;SDS011;11742;53.532;-1.478;2022-11-14T14:18:34;13.07;;;7.40;;
23146;SDS011;11742;53.532;-1.478;2022-11-14T14:23:44;12.25;;;7.13;;
23146;SDS011;11742;53.532;-1.478;2022-11-14T14:31:30;11.77;;;6.15;;
23146;SDS011;11742;53.532;-1.478;2022-11-14T14:34:00;12.52;;;6.40;;
23146;SDS011;11742;53.532;-1.478;2022-11-14T14:36:26;12.10;;;7.28;;
23146;SDS011;11742;53.532;-1.478;2022-11-14T14:41:55;12.38;;;7.55;;
23146;SDS011;11742;53.532;-1.478;2022-11-14T14:44:26;12.13;;;6.45;;
23146;SDS011;11742;53.532;-1.478;2022-11-14T14:46:56;13.20;;;6.45;;
23146;SDS011;11742;53.532;-1.478;2022-11-14T14:49:33;13.40;;;7.30;;
23146;SDS011;11742;53.532;-1.478;2022-11-14T14:52:00;11.38;;;6.43;;
23146;SDS011;11742;53.532;-1.478;2022-11-14T14:54:27;11.13;;;6.60;;
23146;SDS011;11742;53.532;-1.478;2022-11-14T14:56:58;10.23;;;6.47;;
23146;SDS011;11742;53.532;-1.478;2022-11-14T14:59:26;10.80;;;5.95;;
23146;SDS011;11742;53.532;-1.478;2022-11-14T15:01:52;12.75;;;7.10;;
23146;SDS011;11742;53.532;-1.478;2022-11-14T15:04:20;9.98;;;6.30;;
23146;SDS011;11742;53.532;-1.478;2022-11-14T15:06:49;10.77;;;6.45;;
23146;SDS011;11742;53.532;-1.478;2022-11-14T15:09:19;11.82;;;6.93;;
23146;SDS011;11742;53.532;-1.478;2022-11-14T15:11:50;10.95;;;6.70;;
23146;SDS011;11742;53.532;-1.478;2022-11-14T15:14:25;12.98;;;7.13;;
23146;SDS011;11742;53.532;-1.478;2022-11-14T15:16:54;11.18;;;7.50;;
23146;SDS011;11742;53.532;-1.478;2022-11-14T15:19:22;9.52;;;6.30;;
23146;SDS011;11742;53.532;-1.478;2022-11-14T15:22:24;12.32;;;7.18;;
23146;SDS011;11742;53.532;-1.478;2022-11-14T15:24:42;11.07;;;6.93;;
23146;SDS011;11742;53.532;-1.478;2022-11-14T15:27:15;10.25;;;6.28;;
23146;SDS011;11742;53.532;-1.478;2022-11-14T15:29:46;11.27;;;6.55;;
23146;SDS011;11742;53.532;-1.478;2022-11-14T15:32:18;12.20;;;6.50;;
23146;SDS011;11742;53.532;-1.478;2022-11-14T15:37:32;12.60;;;6.65;;
23146;SDS011;11742;53.532;-1.478;2022-11-14T15:40:13;10.00;;;6.15;;
23146;SDS011;11742;53.532;-1.478;2022-11-14T15:42:41;9.25;;;6.50;;
23146;SDS011;11742;53.532;-1.478;2022-11-14T15:45:23;10.98;;;6.30;;
23146;SDS011;11742;53.532;-1.478;2022-11-14T15:47:59;9.63;;;6.07;;
23146;SDS011;11742;53.532;-1.478;2022-11-14T15:50:30;8.65;;;6.18;;
23146;SDS011;11742;53.532;-1.478;2022-11-14T15:52:58;8.80;;;5.78;;
23146;SDS011;11742;53.532;-1.478;2022-11-14T15:55:26;9.10;;;5.45;;
23146;SDS011;11742;53.532;-1.478;2022-11-14T15:57:52;7.80;;;5.00;;
23146;SDS011;11742;53.532;-1.478;2022-11-14T16:00:17;11.35;;;6.00;;
23146;SDS011;11742;53.532;-1.478;2022-11-14T16:02:46;8.80;;;5.22;;
23146;SDS011;11742;53.532;-1.478;2022-11-14T16:05:15;8.52;;;5.72;;
23146;SDS011;11742;53.532;-1.478;2022-11-14T16:07:43;8.10;;;4.97;;
23146;SDS011;11742;53.532;-1.478;2022-11-14T16:10:12;8.80;;;5.28;;
23146;SDS011;11742;53.532;-1.478;2022-11-14T16:12:39;7.10;;;5.15;;
23146;SDS011;11742;53.532;-1.478;2022-11-14T16:15:05;8.38;;;4.97;;
23146;SDS011;11742;53.532;-1.478;2022-11-14T16:17:35;8.23;;;5.13;;
23146;SDS011;11742;53.532;-1.478;2022-11-14T16:20:04;7.10;;;4.50;;
23146;SDS011;11742;53.532;-1.478;2022-11-14T16:22:31;7.30;;;4.80;;
23146;SDS011;11742;53.532;-1.478;2022-11-14T16:25:00;7.75;;;4.72;;
23146;SDS011;11742;53.532;-1.478;2022-11-14T16:27:25;7.88;;;5.05;;
23146;SDS011;11742;53.532;-1.478;2022-11-14T16:29:51;8.80;;;5.50;;
23146;SDS011;11742;53.532;-1.478;2022-11-14T16:32:17;6.90;;;4.32;;
23146;SDS011;11742;53.532;-1.478;2022-11-14T16:34:43;8.07;;;4.75;;
23146;SDS011;11742;53.532;-1.478;2022-11-14T16:37:12;6.47;;;3.85;;
23146;SDS011;11742;53.532;-1.478;2022-11-14T16:39:38;6.90;;;4.05;;
23146;SDS011;11742;53.532;-1.478;2022-11-14T16:42:04;7.32;;;4.40;;
23146;SDS011;11742;53.532;-1.478;2022-11-14T16:44:31;6.32;;;4.07;;
23146;SDS011;11742;53.532;-1.478;2022-11-14T16:46:57;6.15;;;4.05;;
23146;SDS011;11742;53.532;-1.478;2022-11-14T16:49:23;6.07;;;3.92;;
23146;SDS011;11742;53.532;-1.478;2022-11-14T16:51:49;6.25;;;4.00;;
23146;SDS011;11742;53.532;-1.478;2022-11-14T16:54:18;7.25;;;4.25;;
23146;SDS011;11742;53.532;-1.478;2022-11-14T16:56:44;6.88;;;4.43;;
23146;SDS011;11742;53.532;-1.478;2022-11-14T16:59:10;5.97;;;4.25;;
23146;SDS011;11742;53.532;-1.478;2022-11-14T17:01:36;5.85;;;4.07;;